createdAt,value
2023-05-29T00:01:05.038Z,7.8
2023-05-29T00:04:05.795Z,7.8
2023-05-29T00:07:05.013Z,7.8
2023-05-29T00:10:05.040Z,7.8
2023-05-29T00:13:05.986Z,7.7
2023-05-29T00:16:04.971Z,7.8
2023-05-29T00:19:05.005Z,7.7
2023-05-29T00:22:04.960Z,7.6
2023-05-29T00:25:04.916Z,7.6
2023-05-29T00:28:04.914Z,7.7
2023-05-29T00:31:04.922Z,7.6
2023-05-29T00:34:10.341Z,7.6
2023-05-29T00:37:05.058Z,7.6
2023-05-29T00:40:04.952Z,7.6
2023-05-29T00:43:04.995Z,7.5
2023-05-29T00:46:05.067Z,7.5
2023-05-29T00:49:04.970Z,7.5
2023-05-29T00:52:04.938Z,7.5
2023-05-29T00:55:04.967Z,7.5
2023-05-29T00:58:06.978Z,7.6
2023-05-29T01:01:05.028Z,7.5
2023-05-29T01:04:05.299Z,7.5
2023-05-29T01:07:04.971Z,7.5
2023-05-29T01:10:04.943Z,7.4
2023-05-29T01:13:05.144Z,7.4
2023-05-29T01:16:04.980Z,7.4
2023-05-29T01:19:05.022Z,7.3
2023-05-29T01:22:04.988Z,7.4
2023-05-29T01:25:04.877Z,7.4
2023-05-29T01:28:05.059Z,7.3
2023-05-29T01:31:05.021Z,7.2
2023-05-29T01:34:05.028Z,7.1
2023-05-29T01:37:04.966Z,7.2
2023-05-29T01:40:05.084Z,7.2
2023-05-29T01:43:04.941Z,7.1
2023-05-29T01:46:04.872Z,7.1
2023-05-29T01:49:04.987Z,7.1
2023-05-29T01:52:04.975Z,7.1
2023-05-29T01:55:04.945Z,7.0
2023-05-29T01:58:04.942Z,7.0
2023-05-29T02:01:05.222Z,7.0
2023-05-29T02:04:05.229Z,7.0
2023-05-29T02:07:04.892Z,6.9
2023-05-29T02:10:05.005Z,6.9
2023-05-29T02:13:04.973Z,6.9
2023-05-29T02:16:04.948Z,7.0
2023-05-29T02:19:04.949Z,7.0
2023-05-29T02:22:05.095Z,7.0
2023-05-29T02:25:04.855Z,6.9
2023-05-29T02:28:04.949Z,6.9
2023-05-29T02:31:04.910Z,6.9
2023-05-29T02:34:04.938Z,6.9
2023-05-29T02:37:04.886Z,6.9
2023-05-29T02:40:04.888Z,6.9
2023-05-29T02:43:04.914Z,6.8
2023-05-29T02:46:05.031Z,6.8
2023-05-29T02:49:05.002Z,6.7
2023-05-29T02:52:04.971Z,6.7
2023-05-29T02:55:04.888Z,6.6
2023-05-29T02:58:04.882Z,6.5
2023-05-29T03:04:05.543Z,6.5
2023-05-29T03:07:04.899Z,6.5
2023-05-29T03:10:04.881Z,6.6
2023-05-29T03:13:04.914Z,6.5
2023-05-29T03:16:05.031Z,6.5
2023-05-29T03:19:05.017Z,6.5
2023-05-29T03:22:05.114Z,6.3
2023-05-29T03:25:04.926Z,6.2
2023-05-29T03:28:04.967Z,6.3
2023-05-29T03:31:05.033Z,6.2
2023-05-29T03:34:04.853Z,6.2
2023-05-29T03:37:04.965Z,6.1
2023-05-29T03:40:04.931Z,6.2
2023-05-29T03:43:04.911Z,6.1
2023-05-29T03:46:04.974Z,6.0
2023-05-29T03:49:04.903Z,6.1
2023-05-29T03:52:04.890Z,6.1
2023-05-29T03:55:04.956Z,6.0
2023-05-29T03:58:04.904Z,6.1
2023-05-29T04:01:05.014Z,6.0
2023-05-29T04:04:05.588Z,6.0
2023-05-29T04:07:04.988Z,6.0
2023-05-29T04:10:04.898Z,6.0
2023-05-29T04:13:04.896Z,6.0
2023-05-29T04:16:04.952Z,6.0
2023-05-29T04:19:05.049Z,6.0
2023-05-29T04:22:04.910Z,6.1
2023-05-29T04:25:04.894Z,6.1
2023-05-29T04:28:04.958Z,6.3
2023-05-29T04:31:04.999Z,6.4
2023-05-29T04:34:04.983Z,6.5
2023-05-29T04:37:05.013Z,6.4
2023-05-29T04:40:04.894Z,6.5
2023-05-29T04:43:04.877Z,6.6
2023-05-29T04:46:04.908Z,6.5
2023-05-29T04:49:05.105Z,6.4
2023-05-29T04:52:04.888Z,6.4
2023-05-29T04:55:04.912Z,6.4
2023-05-29T04:58:04.907Z,6.5
2023-05-29T05:01:04.956Z,6.4
2023-05-29T05:04:05.102Z,6.4
2023-05-29T05:07:04.883Z,6.4
2023-05-29T05:10:04.934Z,6.4
2023-05-29T05:13:04.859Z,6.3
2023-05-29T05:16:04.961Z,6.3
2023-05-29T05:19:04.956Z,6.2
2023-05-29T05:22:06.401Z,6.2
2023-05-29T05:25:04.886Z,6.3
2023-05-29T05:28:04.930Z,6.2
2023-05-29T05:31:04.893Z,6.1
2023-05-29T05:34:04.929Z,6.2
2023-05-29T05:37:06.204Z,6.2
2023-05-29T05:40:04.900Z,6.4
2023-05-29T05:43:04.948Z,6.4
2023-05-29T05:46:05.097Z,6.3
2023-05-29T05:49:04.906Z,6.4
2023-05-29T05:52:06.883Z,6.5
2023-05-29T05:55:04.959Z,6.4
2023-05-29T05:58:04.908Z,6.3
2023-05-29T06:01:05.056Z,6.1
2023-05-29T06:04:05.847Z,6.3
2023-05-29T06:07:04.866Z,6.0
2023-05-29T06:10:04.937Z,6.1
2023-05-29T06:13:04.865Z,6.1
2023-05-29T06:16:05.029Z,5.9
2023-05-29T06:19:05.014Z,5.8
2023-05-29T06:22:05.252Z,5.7
2023-05-29T06:25:06.140Z,5.8
2023-05-29T06:28:04.960Z,5.7
2023-05-29T06:31:05.130Z,5.5
2023-05-29T06:34:04.951Z,5.4
2023-05-29T06:37:08.163Z,5.4
2023-05-29T06:40:04.890Z,5.3
2023-05-29T06:43:04.912Z,5.2
2023-05-29T06:46:05.003Z,5.1
2023-05-29T06:49:05.930Z,5.2
2023-05-29T06:52:04.889Z,4.9
2023-05-29T06:55:04.916Z,5.0
2023-05-29T06:58:14.786Z,5.2
2023-05-29T07:01:07.659Z,5.1
2023-05-29T07:04:05.660Z,5.2
2023-05-29T07:07:04.906Z,5.2
2023-05-29T07:10:04.947Z,5.2
2023-05-29T07:13:04.879Z,5.2
2023-05-29T07:16:10.357Z,5.3
2023-05-29T07:19:05.890Z,5.4
2023-05-29T07:22:05.564Z,5.4
2023-05-29T07:25:04.873Z,5.4
2023-05-29T07:28:14.568Z,5.4
2023-05-29T07:31:05.013Z,5.4
2023-05-29T07:34:05.002Z,5.5
2023-05-29T07:37:12.278Z,5.5
2023-05-29T07:40:04.987Z,5.6
2023-05-29T07:43:05.870Z,5.7
2023-05-29T07:46:04.967Z,5.7
2023-05-29T07:49:06.410Z,5.6
2023-05-29T07:52:05.014Z,5.5
2023-05-29T07:55:04.953Z,5.5
2023-05-29T07:58:04.884Z,5.6
2023-05-29T08:01:04.956Z,5.6
2023-05-29T08:04:05.403Z,5.6
2023-05-29T08:07:04.924Z,5.7
2023-05-29T08:10:04.918Z,5.7
2023-05-29T08:13:06.134Z,5.7
2023-05-29T08:16:05.008Z,5.8
2023-05-29T08:19:05.135Z,5.7
2023-05-29T08:22:05.414Z,5.7
2023-05-29T08:25:04.952Z,5.7
2023-05-29T08:28:04.998Z,5.7
2023-05-29T08:31:04.967Z,5.9
2023-05-29T08:34:05.284Z,6.1
2023-05-29T08:37:04.944Z,6.0
2023-05-29T08:40:04.960Z,5.9
2023-05-29T08:43:05.546Z,6.1
2023-05-29T08:46:05.199Z,5.9
2023-05-29T08:49:05.088Z,6.1
2023-05-29T08:52:04.984Z,6.0
2023-05-29T08:55:04.933Z,5.9
2023-05-29T08:58:05.034Z,5.9
2023-05-29T09:01:04.974Z,5.9
2023-05-29T09:04:05.396Z,6.1
2023-05-29T09:07:04.966Z,6.1
2023-05-29T09:10:05.082Z,6.2
2023-05-29T09:13:04.910Z,6.1
2023-05-29T09:16:05.171Z,6.1
2023-05-29T09:19:04.963Z,6.2
2023-05-29T09:22:07.642Z,6.2
2023-05-29T09:25:04.905Z,6.2
2023-05-29T09:28:04.915Z,6.1
2023-05-29T09:31:04.933Z,6.2
2023-05-29T09:34:06.029Z,6.3
2023-05-29T09:37:05.318Z,6.3
2023-05-29T09:40:14.794Z,6.5
2023-05-29T09:43:04.943Z,6.2
2023-05-29T09:46:05.149Z,6.1
2023-05-29T09:49:05.182Z,6.1
2023-05-29T09:52:05.405Z,6.0
2023-05-29T09:55:05.092Z,6.2
2023-05-29T09:58:04.925Z,6.1
2023-05-29T10:01:05.035Z,6.0
2023-05-29T10:04:05.659Z,5.7
2023-05-29T10:07:04.986Z,5.8
2023-05-29T10:10:04.920Z,5.8
2023-05-29T10:13:04.944Z,6.0
2023-05-29T10:16:04.949Z,5.9
2023-05-29T10:19:04.993Z,6.1
2023-05-29T10:22:05.187Z,5.8
2023-05-29T10:25:04.973Z,6.0
2023-05-29T10:28:04.950Z,5.5
2023-05-29T10:31:04.915Z,5.7
2023-05-29T10:34:05.056Z,5.7
2023-05-29T10:37:04.974Z,5.9
2023-05-29T10:40:04.899Z,6.3
2023-05-29T10:43:07.019Z,6.4
2023-05-29T10:46:05.393Z,6.6
2023-05-29T10:49:06.394Z,6.7
2023-05-29T10:52:04.990Z,6.7
2023-05-29T10:55:04.843Z,6.9
2023-05-29T10:58:04.968Z,7.1
2023-05-29T11:01:06.891Z,6.6
2023-05-29T11:04:05.442Z,6.3
2023-05-29T11:07:05.009Z,6.3
2023-05-29T11:10:04.959Z,6.1
2023-05-29T11:13:04.946Z,5.6
2023-05-29T11:16:04.924Z,5.4
2023-05-29T11:19:05.396Z,5.5
2023-05-29T11:22:04.898Z,5.6
2023-05-29T11:25:05.056Z,5.7
2023-05-29T11:28:04.958Z,5.6
2023-05-29T11:31:05.044Z,5.9
2023-05-29T11:34:04.968Z,5.5
2023-05-29T11:37:05.124Z,5.4
2023-05-29T11:40:04.919Z,5.2
2023-05-29T11:43:04.971Z,5.3
2023-05-29T11:46:04.923Z,5.3
2023-05-29T11:49:05.164Z,5.3
2023-05-29T11:52:20.685Z,5.1
2023-05-29T11:55:06.436Z,4.9
2023-05-29T11:58:04.951Z,5.1
2023-05-29T12:01:05.096Z,4.9
2023-05-29T12:04:05.262Z,5.2
2023-05-29T12:07:05.556Z,5.4
2023-05-29T12:10:04.959Z,5.0
2023-05-29T12:13:04.997Z,5.2
2023-05-29T12:16:04.923Z,5.5
2023-05-29T12:19:06.015Z,5.5
2023-05-29T12:22:05.004Z,5.2
2023-05-29T12:25:15.477Z,5.0
2023-05-29T12:28:04.973Z,5.0
2023-05-29T12:31:14.847Z,4.8
2023-05-29T12:34:05.534Z,4.4
2023-05-29T12:37:04.961Z,4.1
2023-05-29T12:40:14.818Z,4.3
2023-05-29T12:43:04.909Z,4.4
2023-05-29T12:46:04.965Z,4.6
2023-05-29T12:49:05.021Z,4.6
2023-05-29T12:52:04.983Z,4.8
2023-05-29T12:55:04.898Z,4.5
2023-05-29T12:58:04.904Z,4.3
2023-05-29T13:01:05.101Z,4.6
2023-05-29T13:04:05.451Z,4.7
2023-05-29T13:07:04.883Z,4.9
2023-05-29T13:10:04.947Z,4.5
2023-05-29T13:13:04.918Z,4.6
2023-05-29T13:16:04.978Z,4.6
2023-05-29T13:19:04.958Z,4.8
2023-05-29T13:22:04.882Z,4.7
2023-05-29T13:25:04.942Z,4.4
2023-05-29T13:28:04.864Z,4.5
2023-05-29T13:31:04.939Z,4.4
2023-05-29T13:34:04.928Z,4.4
2023-05-29T13:37:05.159Z,4.3
2023-05-29T13:40:05.064Z,4.7
2023-05-29T13:43:04.905Z,4.7
2023-05-29T13:46:05.005Z,5.1
2023-05-29T13:49:04.998Z,5.3
2023-05-29T13:52:04.867Z,5.0
2023-05-29T13:55:04.929Z,4.9
2023-05-29T13:58:04.851Z,5.4
2023-05-29T14:01:05.014Z,5.4
2023-05-29T14:04:05.430Z,5.0
2023-05-29T14:07:04.941Z,5.0
2023-05-29T14:10:04.999Z,5.5
2023-05-29T14:13:05.033Z,5.7
2023-05-29T14:16:05.066Z,5.7
2023-05-29T14:19:05.422Z,5.5
2023-05-29T14:22:04.965Z,5.2
2023-05-29T14:25:04.942Z,5.3
2023-05-29T14:28:04.967Z,5.5
2023-05-29T14:31:05.012Z,5.6
2023-05-29T14:34:05.025Z,5.4
2023-05-29T14:37:04.934Z,5.2
2023-05-29T14:40:04.895Z,5.4
2023-05-29T14:43:06.022Z,5.6
2023-05-29T14:46:04.920Z,5.6
2023-05-29T14:49:04.975Z,5.4
2023-05-29T14:52:04.882Z,5.2
2023-05-29T14:55:06.264Z,5.3
2023-05-29T14:58:05.830Z,5.2
2023-05-29T15:01:06.872Z,5.4
2023-05-29T15:04:05.551Z,5.4
2023-05-29T15:07:11.932Z,5.5
2023-05-29T15:10:05.027Z,5.4
2023-05-29T15:13:04.853Z,5.5
2023-05-29T15:16:14.847Z,5.6
2023-05-29T15:19:04.964Z,5.4
2023-05-29T15:22:04.981Z,5.0
2023-05-29T15:25:04.999Z,5.2
2023-05-29T15:28:05.289Z,5.4
2023-05-29T15:31:05.178Z,5.7
2023-05-29T15:34:05.030Z,5.5
2023-05-29T15:37:04.988Z,4.9
2023-05-29T15:40:04.887Z,5.1
2023-05-29T15:43:04.984Z,5.3
2023-05-29T15:46:05.094Z,5.5
2023-05-29T15:49:06.203Z,5.6
2023-05-29T15:52:04.927Z,5.6
2023-05-29T15:55:04.888Z,5.4
2023-05-29T15:58:04.945Z,5.2
2023-05-29T16:01:05.181Z,5.3
2023-05-29T16:04:05.151Z,5.6
2023-05-29T16:07:04.921Z,5.6
2023-05-29T16:10:04.982Z,5.5
2023-05-29T16:13:04.969Z,5.5
2023-05-29T16:16:05.089Z,5.7
2023-05-29T16:19:04.943Z,5.4
2023-05-29T16:22:04.941Z,5.2
2023-05-29T16:25:04.952Z,5.1
2023-05-29T16:28:04.990Z,5.4
2023-05-29T16:31:05.165Z,5.6
2023-05-29T16:34:05.457Z,5.7
2023-05-29T16:37:04.940Z,5.3
2023-05-29T16:40:05.023Z,5.3
2023-05-29T16:43:04.934Z,5.5
2023-05-29T16:46:05.115Z,5.1
2023-05-29T16:49:04.952Z,5.2
2023-05-29T16:52:04.931Z,5.3
2023-05-29T16:55:05.271Z,5.1
2023-05-29T16:58:04.963Z,5.0
2023-05-29T17:01:05.138Z,4.4
2023-05-29T17:04:05.016Z,4.3
2023-05-29T17:07:05.126Z,4.8
2023-05-29T17:10:04.942Z,4.9
2023-05-29T17:13:04.986Z,5.1
2023-05-29T17:16:04.937Z,5.1
2023-05-29T17:19:05.044Z,5.0
2023-05-29T17:22:05.172Z,4.4
2023-05-29T17:25:05.143Z,4.9
2023-05-29T17:28:05.003Z,5.1
2023-05-29T17:31:05.166Z,5.5
2023-05-29T17:34:05.072Z,5.6
2023-05-29T17:37:05.032Z,5.6
2023-05-29T17:40:04.917Z,5.9
2023-05-29T17:43:04.930Z,6.0
2023-05-29T17:46:04.952Z,6.3
2023-05-29T17:49:04.991Z,6.2
2023-05-29T17:52:04.966Z,6.2
2023-05-29T17:55:04.871Z,6.1
2023-05-29T17:58:04.934Z,6.0
2023-05-29T18:01:05.042Z,5.9
2023-05-29T18:04:05.396Z,5.8
2023-05-29T18:07:05.048Z,5.8
2023-05-29T18:10:04.959Z,5.8
2023-05-29T18:13:14.857Z,5.9
2023-05-29T18:16:05.105Z,5.9
2023-05-29T18:19:05.070Z,5.8
2023-05-29T18:22:04.897Z,5.7
2023-05-29T18:25:04.914Z,5.7
2023-05-29T18:28:05.154Z,5.6
2023-05-29T18:31:04.989Z,5.5
2023-05-29T18:34:05.065Z,5.4
2023-05-29T18:37:05.009Z,5.5
2023-05-29T18:40:04.955Z,5.3
2023-05-29T18:43:14.822Z,5.4
2023-05-29T18:46:05.050Z,5.3
2023-05-29T18:49:05.032Z,5.2
2023-05-29T18:52:04.850Z,5.2
2023-05-29T18:55:04.959Z,5.1
2023-05-29T18:58:04.937Z,5.0
2023-05-29T19:01:15.765Z,4.9
2023-05-29T19:04:05.609Z,4.9
2023-05-29T19:07:05.177Z,4.7
2023-05-29T19:10:05.294Z,4.7
2023-05-29T19:13:04.938Z,4.7
2023-05-29T19:16:05.063Z,4.7
2023-05-29T19:19:05.041Z,4.7
2023-05-29T19:22:04.949Z,4.6
2023-05-29T19:25:04.982Z,4.8
2023-05-29T19:28:05.442Z,4.7
2023-05-29T19:31:04.969Z,4.6
2023-05-29T19:34:05.460Z,4.6
2023-05-29T19:37:04.992Z,4.5
2023-05-29T19:40:07.434Z,4.5
2023-05-29T19:43:10.703Z,4.7
2023-05-29T19:46:14.773Z,4.6
2023-05-29T19:49:04.929Z,4.7
2023-05-29T19:52:04.996Z,4.7
2023-05-29T19:55:06.032Z,4.9
2023-05-29T19:58:05.021Z,5.1
2023-05-29T20:01:05.157Z,5.1
2023-05-29T20:04:05.666Z,5.0
2023-05-29T20:07:05.125Z,5.0
2023-05-29T20:10:04.954Z,5.0
2023-05-29T20:13:04.971Z,5.1
2023-05-29T20:16:04.885Z,5.0
2023-05-29T20:19:05.024Z,4.9
2023-05-29T20:22:05.634Z,4.7
2023-05-29T20:25:04.977Z,4.6
2023-05-29T20:28:04.992Z,4.5
2023-05-29T20:31:06.169Z,4.5
2023-05-29T20:34:05.007Z,4.5
2023-05-29T20:37:04.938Z,4.5
2023-05-29T20:40:08.250Z,4.4
2023-05-29T20:43:05.093Z,4.3
2023-05-29T20:46:04.954Z,4.4
2023-05-29T20:49:04.989Z,4.4
2023-05-29T20:52:05.097Z,4.3
2023-05-29T20:55:05.006Z,4.4
2023-05-29T20:58:04.998Z,4.4
2023-05-29T21:01:05.065Z,4.4
2023-05-29T21:04:05.521Z,4.5
2023-05-29T21:07:05.131Z,4.4
2023-05-29T21:10:04.928Z,4.5
2023-05-29T21:13:14.030Z,4.6
2023-05-29T21:16:06.597Z,4.6
2023-05-29T21:19:04.987Z,4.7
2023-05-29T21:22:05.562Z,4.7
2023-05-29T21:25:04.956Z,4.8
2023-05-29T21:28:04.911Z,4.9
2023-05-29T21:31:07.061Z,4.9
2023-05-29T21:34:05.029Z,5.1
2023-05-29T21:37:06.694Z,5.1
2023-05-29T21:40:04.930Z,5.1
2023-05-29T21:43:05.013Z,5.2
2023-05-29T21:46:05.092Z,5.2
2023-05-29T21:49:04.968Z,5.2
2023-05-29T21:52:04.956Z,5.3
2023-05-29T21:55:04.972Z,5.4
2023-05-29T21:58:04.929Z,5.5
2023-05-29T22:01:05.183Z,5.5
2023-05-29T22:04:05.319Z,5.6
2023-05-29T22:07:05.058Z,5.6
2023-05-29T22:10:04.971Z,5.6
2023-05-29T22:13:04.936Z,5.6
2023-05-29T22:16:04.953Z,5.7
2023-05-29T22:19:14.862Z,5.6
2023-05-29T22:22:05.473Z,5.6
2023-05-29T22:25:08.089Z,5.8
2023-05-29T22:28:04.949Z,5.8
2023-05-29T22:31:05.142Z,5.9
2023-05-29T22:34:05.061Z,6.0
2023-05-29T22:37:04.931Z,6.0
2023-05-29T22:40:04.914Z,5.9
2023-05-29T22:43:04.923Z,5.8
2023-05-29T22:46:04.989Z,5.8
2023-05-29T22:49:04.907Z,5.8
2023-05-29T22:52:05.341Z,5.7
2023-05-29T22:55:04.925Z,5.7
2023-05-29T22:58:08.307Z,5.7
2023-05-29T23:01:05.005Z,5.7
2023-05-29T23:04:05.684Z,5.7
2023-05-29T23:07:04.845Z,5.8
2023-05-29T23:10:05.040Z,5.7
2023-05-29T23:13:04.934Z,5.7
2023-05-29T23:16:05.008Z,5.7
2023-05-29T23:19:05.043Z,5.7
2023-05-29T23:22:05.482Z,5.8
2023-05-29T23:25:04.983Z,5.8
2023-05-29T23:28:04.925Z,5.8
2023-05-29T23:31:04.976Z,5.8
2023-05-29T23:34:05.074Z,5.7
2023-05-29T23:37:04.929Z,5.7
2023-05-29T23:40:04.871Z,5.7
2023-05-29T23:43:04.899Z,5.7
2023-05-29T23:46:05.070Z,5.8
2023-05-29T23:49:05.074Z,5.8
2023-05-29T23:52:05.319Z,5.8
2023-05-29T23:55:04.979Z,5.8
2023-05-29T23:58:04.925Z,5.8
